KSAD

Safford Regional Airport

Safford, Arizona, USA
METAR KSAD 191914Z AUTO 25007KT 10SM VCTS FEW070 BKN080 OVC110 31/14 A2984 RMK AO2 LTG DSNT S T03060144
Observed Flight Rules
Sep-19 @ 19:14 UTC (15 minutes ago) Visual Flight Rules
Wind Visibility Clouds Conditions
250° at 7 knots 10 miles
  • Few at 7,000' AGL
  • Broken at 8,000' AGL
  • Overcast at 11,000' AGL
  • Area Thunderstorm
Temperatures Readings
Current 31°C / 88°F
Dewpoint 14°C / 57°F
Humidity 35%
Altimeter 29.84" Hg
Pressure 1010 hPa
Elevation 962
METAR KSAD 191914Z AUTO 25007KT 10SM VCTS FEW070 BKN080 OVC110 31/14 A2984 RMK AO2 LTG DSNT S T03060144
Observed Flight Rules
Sep-19 @ 19:14 UTC
(15 minutes ago)
VFR
Wind Visibility
250° at 7 knots 10 miles
Clouds
  • Few at 7,000' AGL
  • Broken at 8,000' AGL
  • Overcast at 11,000' AGL
Conditions
  • Area Thunderstorm
Temperature Dewpoint
31°C / 88°F 14°C / 57°F
Humidity Altimeter Pressure
35% 29.84" Hg 1010 hPa